This is the latest recevied weather packets stored in our database for station/object N0KWA. If no packets are shown the sender has not sent any weather packets the latest 10 day(s).
| Time | Temp. | Humidity | Pressure | Rain* | Wind** | Luminosity | Snow |
|---|---|---|---|---|---|---|---|
| 1788405636 | 25.56° C | 99% | 1018 hPa | 0 mm | - | 0 W/m² | - |
| 1788405351 | 25.56° C | 99% | 1018 hPa | 0 mm | - | 0 W/m² | - |
| 1788405031 | 25.56° C | 99% | 1018.2 hPa | 0 mm | - | 0 W/m² | - |
| 1788404727 | 25.56° C | 99% | 1018.3 hPa | 0 mm | - | 0 W/m² | - |
| 1788404423 | 25.56° C | 99% | 1018.2 hPa | 0 mm | - | 0 W/m² | - |
| 1788404118 | 25.56° C | 99% | 1018.1 hPa | 0 mm | - | 0 W/m² | - |
| 1788403814 | 25.56° C | 99% | 1018 hPa | 0 mm | - | 0 W/m² | - |
| 1788403513 | 25.56° C | 99% | 1018.1 hPa | 0 mm | - | 0 W/m² | - |
| 1788403207 | 25.56° C | 99% | 1018.1 hPa | 0 mm | - | 0 W/m² | - |
| 1788402903 | 25.56° C | 99% | 1018 hPa | 0 mm | - | 0 W/m² | - |
| 1788402598 | 25.56° C | 99% | 1018 hPa | 0 mm | - | 0 W/m² | - |
| 1788402297 | 25.56° C | 99% | 1017.8 hPa | 0 mm | - | 0 W/m² | - |
| 1788401995 | 25.56° C | 99% | 1017.9 hPa | 0 mm | - | 0 W/m² | - |
| 1788401691 | 25.56° C | 99% | 1017.7 hPa | 0 mm | - | 0 W/m² | - |
| 1788289550 | 32.22° C | 78% | 1018.7 hPa | 0 mm | - | 29 W/m² | - |
| 1788289250 | 32.22° C | 78% | 1018.7 hPa | 0 mm | - | 29 W/m² | - |
| 1788288948 | 32.22° C | 77% | 1018.6 hPa | 0 mm | - | 38 W/m² | - |
| 1788288647 | 32.78° C | 76% | 1018.8 hPa | 0 mm | - | 58 W/m² | - |
| 1788288343 | 32.78° C | 76% | 1018.8 hPa | 0 mm | - | 54 W/m² | - |
| 1788288038 | 32.78° C | 74% | 1018.7 hPa | 0 mm | - | 57 W/m² | - |
| 1788287738 | 32.22° C | 78% | 1018.9 hPa | 0 mm | - | 52 W/m² | - |
| 1788287433 | 32.22° C | 77% | 1019.1 hPa | 0 mm | - | 52 W/m² | - |
| 1788287129 | 32.78° C | 77% | 1019.1 hPa | 0 mm | - | 43 W/m² | - |
| 1788286824 | 32.78° C | 78% | 1019.1 hPa | 0 mm | - | 44 W/m² | - |
| 1788286524 | 32.22° C | 78% | 1019.2 hPa | 0 mm | - | 612 W/m² | - |
* Rain latest hour (hover to see other rain measurements)
** Current wind speed in m/s (hover to see current wind gust speed)